Time,TemperatureF,DewpointF,PressureIn,WindDirection,WindDirectionDegrees,WindSpeedMPH,WindSpeedGustMPH,Humidity,HourlyPrecipIn,Conditions,Clouds,dailyrainin,SoftwareType,DateUTC
2013-03-05 00:08:00,34.0,33.5,29.95,NNE,22,10.9,-999.0,98,-99.99,,,0.00,Acu-Link.com,2013-03-05 06:08:00,
2013-03-05 00:23:00,34.2,33.7,29.95,NW,315,13.0,-999.0,98,-99.99,,,0.00,Acu-Link.com,2013-03-05 06:23:00,
2013-03-05 00:38:00,34.0,33.5,29.96,NW,315,8.9,-999.0,98,-99.99,,,0.00,Acu-Link.com,2013-03-05 06:38:00,
2013-03-05 00:53:00,33.8,33.3,29.96,WNW,292,11.9,-999.0,98,-99.99,,,0.00,Acu-Link.com,2013-03-05 06:53:00,
2013-03-05 01:09:00,33.6,33.1,29.98,NW,315,9.4,-999.0,98,-99.99,,,0.00,Acu-Link.com,2013-03-05 07:09:00,
2013-03-05 01:24:00,33.1,28.5,29.99,NW,315,10.4,-999.0,83,-99.99,,,0.00,Acu-Link.com,2013-03-05 07:24:00,
2013-03-05 01:39:00,32.0,26.5,29.99,NW,315,10.9,-999.0,80,-99.99,,,0.00,Acu-Link.com,2013-03-05 07:39:00,
2013-03-05 01:54:00,31.5,25.8,29.99,WNW,292,10.4,-999.0,79,-99.99,,,0.00,Acu-Link.com,2013-03-05 07:54:00,
2013-03-05 02:09:00,31.3,26.2,30.00,NW,315,6.8,-999.0,81,-99.99,,,0.00,Acu-Link.com,2013-03-05 08:09:00,
2013-03-05 02:25:00,30.7,25.3,30.01,WNW,292,13.0,-999.0,80,-99.99,,,0.00,Acu-Link.com,2013-03-05 08:25:00,
2013-03-05 02:40:00,30.0,25.2,30.00,NNW,337,11.4,-999.0,82,-99.99,,,0.00,Acu-Link.com,2013-03-05 08:40:00,
2013-03-05 02:55:00,29.5,25.3,30.00,NNW,337,8.3,-999.0,84,-99.99,,,0.00,Acu-Link.com,2013-03-05 08:55:00,
2013-03-05 03:10:00,28.6,25.5,30.01,West,270,9.9,-999.0,88,-99.99,,,0.00,Acu-Link.com,2013-03-05 09:10:00,
2013-03-05 03:25:00,28.0,24.6,30.01,WNW,292,14.0,-999.0,87,-99.99,,,0.00,Acu-Link.com,2013-03-05 09:25:00,
2013-03-05 03:41:00,27.7,23.5,30.01,NNE,22,13.0,-999.0,84,-99.99,,,0.00,Acu-Link.com,2013-03-05 09:41:00,
2013-03-05 03:56:00,27.1,23.5,30.02,WNW,292,5.3,-999.0,86,-99.99,,,0.00,Acu-Link.com,2013-03-05 09:56:00,
2013-03-05 04:11:00,26.6,23.3,30.02,North,0,9.9,-999.0,87,-99.99,,,0.00,Acu-Link.com,2013-03-05 10:11:00,
2013-03-05 04:26:00,26.4,23.3,30.02,West,270,4.7,-999.0,88,-99.99,,,0.00,Acu-Link.com,2013-03-05 10:26:00,
2013-03-05 04:42:00,26.1,23.3,30.02,WNW,292,9.4,-999.0,89,-99.99,,,0.00,Acu-Link.com,2013-03-05 10:42:00,
2013-03-05 04:57:00,26.1,23.3,30.03,NW,315,7.8,-999.0,89,-99.99,,,0.00,Acu-Link.com,2013-03-05 10:57:00,
2013-03-05 05:12:00,26.1,22.2,30.04,WNW,292,11.9,-999.0,85,-99.99,,,0.00,Acu-Link.com,2013-03-05 11:12:00,
2013-03-05 05:27:00,25.5,21.6,30.05,NW,315,8.9,-999.0,85,-99.99,,,0.00,Acu-Link.com,2013-03-05 11:27:00,
2013-03-05 05:42:00,25.3,21.4,30.05,WNW,292,10.4,-999.0,85,-99.99,,,0.00,Acu-Link.com,2013-03-05 11:42:00,
2013-03-05 05:58:00,24.8,20.9,30.06,WNW,292,8.9,-999.0,85,-99.99,,,0.00,Acu-Link.com,2013-03-05 11:58:00,
2013-03-05 06:13:00,24.6,21.0,30.05,NW,315,6.3,-999.0,86,-99.99,,,0.00,Acu-Link.com,2013-03-05 12:13:00,
2013-03-05 06:28:00,24.3,20.7,30.06,NNE,22,6.3,-999.0,86,-99.99,,,0.00,Acu-Link.com,2013-03-05 12:28:00,
2013-03-05 06:43:00,23.9,20.6,30.07,WNW,292,8.3,-999.0,87,-99.99,,,0.00,Acu-Link.com,2013-03-05 12:43:00,
2013-03-05 06:58:00,23.9,20.6,30.07,NNW,337,4.2,-999.0,87,-99.99,,,0.00,Acu-Link.com,2013-03-05 12:58:00,
2013-03-05 07:14:00,25.0,21.4,30.06,WSW,247,8.3,-999.0,86,-99.99,,,0.00,Acu-Link.com,2013-03-05 13:14:00,
2013-03-05 07:29:00,25.2,21.9,30.07,WSW,247,5.3,-999.0,87,-99.99,,,0.00,Acu-Link.com,2013-03-05 13:29:00,
2013-03-05 07:44:00,25.5,21.9,30.07,WNW,292,10.4,-999.0,86,-99.99,,,0.00,Acu-Link.com,2013-03-05 13:44:00,
2013-03-05 07:59:00,26.2,22.3,30.07,WNW,292,4.2,-999.0,85,-99.99,,,0.00,Acu-Link.com,2013-03-05 13:59:00,
2013-03-05 08:15:00,26.6,22.7,30.07,NW,315,6.3,-999.0,85,-99.99,,,0.00,Acu-Link.com,2013-03-05 14:15:00,
2013-03-05 08:30:00,27.3,23.7,30.07,NW,315,14.5,-999.0,86,-99.99,,,0.00,Acu-Link.com,2013-03-05 14:30:00,
2013-03-05 08:45:00,27.9,24.3,30.08,WNW,292,6.8,-999.0,86,-99.99,,,0.00,Acu-Link.com,2013-03-05 14:45:00,
2013-03-05 09:00:00,28.0,24.4,30.08,NW,315,9.9,-999.0,86,-99.99,,,0.00,Acu-Link.com,2013-03-05 15:00:00,
2013-03-05 09:15:00,28.4,25.0,30.09,WNW,292,13.5,-999.0,87,-99.99,,,0.00,Acu-Link.com,2013-03-05 15:15:00,
2013-03-05 09:31:00,28.9,25.0,30.08,WSW,247,8.9,-999.0,85,-99.99,,,0.00,Acu-Link.com,2013-03-05 15:31:00,
2013-03-05 09:46:00,30.4,25.6,30.07,WNW,292,19.7,-999.0,82,-99.99,,,0.00,Acu-Link.com,2013-03-05 15:46:00,
2013-03-05 10:01:00,31.1,26.3,30.07,WNW,292,9.9,-999.0,82,-99.99,,,0.00,Acu-Link.com,2013-03-05 16:01:00,
2013-03-05 10:16:00,31.8,26.3,30.06,WNW,292,13.0,-999.0,80,-99.99,,,0.00,Acu-Link.com,2013-03-05 16:16:00,
2013-03-05 10:31:00,32.0,26.5,30.08,West,270,15.5,-999.0,80,-99.99,,,0.00,Acu-Link.com,2013-03-05 16:31:00,
2013-03-05 10:47:00,31.3,26.5,30.08,NW,315,11.4,-999.0,82,-99.99,,,0.00,Acu-Link.com,2013-03-05 16:47:00,
2013-03-05 11:02:00,30.6,26.1,30.09,WNW,292,19.7,-999.0,83,-99.99,,,0.00,Acu-Link.com,2013-03-05 17:02:00,
2013-03-05 11:17:00,30.9,26.4,30.10,West,270,20.7,-999.0,83,-99.99,,,0.00,Acu-Link.com,2013-03-05 17:17:00,
2013-03-05 11:32:00,30.9,26.4,30.10,NW,315,18.1,-999.0,83,-99.99,,,0.00,Acu-Link.com,2013-03-05 17:32:00,
2013-03-05 11:48:00,31.1,26.8,30.11,NW,315,13.5,-999.0,84,-99.99,,,0.00,Acu-Link.com,2013-03-05 17:48:00,
2013-03-05 12:03:00,31.1,26.6,30.11,WNW,292,12.5,-999.0,83,-99.99,,,0.00,Acu-Link.com,2013-03-05 18:03:00,
2013-03-05 12:18:00,31.6,27.0,30.11,North,0,9.9,-999.0,83,-99.99,,,0.00,Acu-Link.com,2013-03-05 18:18:00,
2013-03-05 12:33:00,31.8,26.9,30.12,West,270,9.4,-999.0,82,-99.99,,,0.00,Acu-Link.com,2013-03-05 18:33:00,
2013-03-05 12:48:00,31.8,27.2,30.12,NNW,337,22.7,-999.0,83,-99.99,,,0.00,Acu-Link.com,2013-03-05 18:48:00,
2013-03-05 13:04:00,31.8,27.2,30.12,NW,315,11.9,-999.0,83,-99.99,,,0.00,Acu-Link.com,2013-03-05 19:04:00,
2013-03-05 13:19:00,32.2,27.0,30.13,West,270,13.0,-999.0,81,-99.99,,,0.00,Acu-Link.com,2013-03-05 19:19:00,
2013-03-05 13:34:00,32.0,26.8,30.13,West,270,15.0,-999.0,81,-99.99,,,0.00,Acu-Link.com,2013-03-05 19:34:00,
2013-03-05 13:49:00,32.5,27.3,30.13,West,270,8.3,-999.0,81,-99.99,,,0.00,Acu-Link.com,2013-03-05 19:49:00,
2013-03-05 14:05:00,32.2,27.0,30.13,WNW,292,16.1,-999.0,81,-99.99,,,0.00,Acu-Link.com,2013-03-05 20:05:00,
2013-03-05 14:20:00,32.2,26.4,30.14,West,270,20.2,-999.0,79,-99.99,,,0.00,Acu-Link.com,2013-03-05 20:20:00,
2013-03-05 14:35:00,32.2,26.7,30.15,West,270,10.4,-999.0,80,-99.99,,,0.00,Acu-Link.com,2013-03-05 20:35:00,
2013-03-05 14:50:00,32.2,26.4,30.16,WNW,292,16.1,-999.0,79,-99.99,,,0.00,Acu-Link.com,2013-03-05 20:50:00,
2013-03-05 15:06:00,31.6,26.2,30.17,West,270,17.6,-999.0,80,-99.99,,,0.00,Acu-Link.com,2013-03-05 21:06:00,
2013-03-05 15:21:00,31.8,26.3,30.17,NNW,337,10.4,-999.0,80,-99.99,,,0.00,Acu-Link.com,2013-03-05 21:21:00,
2013-03-05 15:36:00,32.2,26.4,30.17,NW,315,11.9,-999.0,79,-99.99,,,0.00,Acu-Link.com,2013-03-05 21:36:00,
2013-03-05 15:51:00,32.5,26.1,30.17,NW,315,14.5,-999.0,77,-99.99,,,0.00,Acu-Link.com,2013-03-05 21:51:00,
2013-03-05 16:07:00,32.4,26.3,30.17,NW,315,16.6,-999.0,78,-99.99,,,0.00,Acu-Link.com,2013-03-05 22:07:00,
2013-03-05 16:22:00,33.1,27.0,30.18,NNW,337,9.4,-999.0,78,-99.99,,,0.00,Acu-Link.com,2013-03-05 22:22:00,
2013-03-05 16:37:00,32.5,25.2,30.19,NNW,337,14.5,-999.0,74,-99.99,,,0.00,Acu-Link.com,2013-03-05 22:37:00,
2013-03-05 16:52:00,32.4,26.0,30.20,West,270,11.4,-999.0,77,-99.99,,,0.00,Acu-Link.com,2013-03-05 22:52:00,
2013-03-05 17:07:00,31.6,25.8,30.20,WNW,292,7.8,-999.0,79,-99.99,,,0.00,Acu-Link.com,2013-03-05 23:07:00,
2013-03-05 17:23:00,30.7,25.0,30.21,NNW,337,12.5,-999.0,79,-99.99,,,0.00,Acu-Link.com,2013-03-05 23:23:00,
2013-03-05 17:38:00,30.2,24.8,30.22,West,270,10.9,-999.0,80,-99.99,,,0.00,Acu-Link.com,2013-03-05 23:38:00,
2013-03-05 17:53:00,30.2,24.8,30.22,NNW,337,14.0,-999.0,80,-99.99,,,0.00,Acu-Link.com,2013-03-05 23:53:00,
2013-03-05 18:09:00,29.5,24.4,30.23,NNW,337,11.9,-999.0,81,-99.99,,,0.00,Acu-Link.com,2013-03-06 00:09:00,
2013-03-05 18:24:00,28.9,24.4,30.24,NNW,337,14.0,-999.0,83,-99.99,,,0.00,Acu-Link.com,2013-03-06 00:24:00,
2013-03-05 18:39:00,28.6,25.0,30.25,NNW,337,10.4,-999.0,86,-99.99,,,0.00,Acu-Link.com,2013-03-06 00:39:00,
2013-03-05 18:54:00,28.4,24.8,30.24,NNW,337,10.9,-999.0,86,-99.99,,,0.00,Acu-Link.com,2013-03-06 00:54:00,
2013-03-05 19:09:00,27.7,24.3,30.25,NW,315,9.9,-999.0,87,-99.99,,,0.00,Acu-Link.com,2013-03-06 01:09:00,
2013-03-05 19:25:00,27.5,24.1,30.26,NNW,337,12.5,-999.0,87,-99.99,,,0.00,Acu-Link.com,2013-03-06 01:25:00,
2013-03-05 19:40:00,27.1,24.3,30.27,WNW,292,7.3,-999.0,89,-99.99,,,0.00,Acu-Link.com,2013-03-06 01:40:00,
2013-03-05 19:55:00,26.6,23.8,30.27,NNW,337,6.3,-999.0,89,-99.99,,,0.00,Acu-Link.com,2013-03-06 01:55:00,
2013-03-05 20:10:00,26.2,23.4,30.27,NNW,337,9.4,-999.0,89,-99.99,,,0.00,Acu-Link.com,2013-03-06 02:10:00,
2013-03-05 20:25:00,25.7,23.2,30.28,NNW,337,10.4,-999.0,90,-99.99,,,0.00,Acu-Link.com,2013-03-06 02:25:00,
2013-03-05 20:41:00,25.7,23.2,30.29,WNW,292,9.4,-999.0,90,-99.99,,,0.00,Acu-Link.com,2013-03-06 02:41:00,
2013-03-05 20:56:00,25.9,25.4,30.29,NW,315,10.9,-999.0,98,-99.99,,,0.00,Acu-Link.com,2013-03-06 02:56:00,
2013-03-05 21:11:00,25.7,25.2,30.30,WNW,292,9.4,-999.0,98,-99.99,,,0.00,Acu-Link.com,2013-03-06 03:11:00,
2013-03-05 21:26:00,25.5,25.0,30.31,NNW,337,11.4,-999.0,98,-99.99,,,0.00,Acu-Link.com,2013-03-06 03:26:00,
2013-03-05 21:42:00,25.7,25.2,30.30,WNW,292,8.3,-999.0,98,-99.99,,,0.00,Acu-Link.com,2013-03-06 03:42:00,
2013-03-05 21:57:00,25.7,25.2,30.31,NNW,337,7.8,-999.0,98,-99.99,,,0.00,Acu-Link.com,2013-03-06 03:57:00,
2013-03-05 22:12:00,25.5,25.0,30.31,NW,315,10.9,-999.0,98,-99.99,,,0.00,Acu-Link.com,2013-03-06 04:12:00,
2013-03-05 22:27:00,25.3,24.8,30.31,North,0,9.4,-999.0,98,-99.99,,,0.00,Acu-Link.com,2013-03-06 04:27:00,
2013-03-05 22:42:00,25.5,23.2,30.32,NW,315,8.9,-999.0,91,-99.99,,,0.00,Acu-Link.com,2013-03-06 04:42:00,
2013-03-05 22:58:00,24.8,22.0,30.31,NNW,337,11.9,-999.0,89,-99.99,,,0.00,Acu-Link.com,2013-03-06 04:58:00,
2013-03-05 23:13:00,24.3,21.8,30.32,NW,315,6.3,-999.0,90,-99.99,,,0.00,Acu-Link.com,2013-03-06 05:13:00,
2013-03-05 23:28:00,24.6,21.8,30.33,NNW,337,8.9,-999.0,89,-99.99,,,0.00,Acu-Link.com,2013-03-06 05:28:00,
2013-03-05 23:43:00,24.4,21.9,30.33,NW,315,9.9,-999.0,90,-99.99,,,0.00,Acu-Link.com,2013-03-06 05:43:00,